Huvudsida
METAR-TAF:

METAR-TAF

Flygplatser :

Saint-Pierre, Réunion

latitud: 21-20S, longitud: 055-29E, höjd: 52 m

Aktuellt väderrapport

Denna rapport gjordes för 29 minuter sedan, klockan 21:00 UTC
Vind 4 kt från nord/nordost
Temperatur 26°C
Fuktighet 84%
Tryck 1008 hPa
Sikt 10 km eller mer
Inga moln under 1 500 m eller inga cumulonimbus

METAR: FMEP 192100Z AUTO 02004KT CAVOK 26/23 Q1008

Tid: 01:29 (21:29 UTC)

Väderprognos

Denna rapport gjordes för 10 timmar och 29 minuter sedan, klockan 11:00 UTC
Prognos gäller från 19 kl. 12 UTC till 19 kl. 21 UTC
Vind 15 kt från ost/sydost
Sikt 10 km eller mer
Få moln på en höjd av 3000 ft
Brutna moln på en höjd av 10000 ft
Sannolikhet 30% :
Temporärt
från 19 kl. 12 UTC till 19 kl. 21 UTC
Sikt: 4000 m
Brutna moln på en höjd av 1500 ft, Högtornande cumulus.
regnskurar

TAF: FMEP 191100Z 1912/1921 12015KT 9999 FEW030 BKN100 PROB30 TEMPO 1912/1921 4000 SHRA BKN015TCU

Aktuella väderrapporter och prognoser från 4000 flygplatser (METAR- och TAF-rapporter).

De tillgängliga stationerna syns som gula och röda prickar på kartan.

För musen över prickarna för att se namnen på stationerna.

Klicka sedan för att få väderrapporter och prognoser.

För att ändra kartan: Klicka på de gröna knapparna med ett svart kors på för att zooma in; den gröna knappen med ett streck på för att zooma ut; eller på de gröna pilarna för angränsande kartor.


METAR-TAF: